Time;durP1;ratioP1;P1;durP2;ratioP2;P2;SDS_P1;SDS_P2;PMS_P1;PMS_P2;Temp;Humidity;BMP_temperature;BMP_pressure;BME280_temperature;BME280_humidity;BME280_pressure;Samples;Min_cycle;Max_cycle;Signal;HPM_P1;HPM_P2
2021/01/09 00:00:12;;;;;;;19.67;10.68;;;;;;;;;;5022927;28;20124;-70
2021/01/09 00:02:42;;;;;;;19.42;11.57;;;;;;;;;;5047660;28;20116;-71
2021/01/09 00:05:08;;;;;;;17.77;11.23;;;;;;;;;;5045655;28;20070;-71
2021/01/09 00:07:35;;;;;;;19.92;11.10;;;;;;;;;;5044814;28;20353;-71
2021/01/09 00:10:01;;;;;;;18.05;9.93;;;;;;;;;;5048903;28;20028;-70
2021/01/09 00:12:27;;;;;;;22.77;11.35;;;;;;;;;;5042072;28;20044;-70
2021/01/09 00:14:53;;;;;;;20.83;11.00;;;;;;;;;;5047464;28;20040;-71
2021/01/09 00:17:20;;;;;;;21.13;10.73;;;;;;;;;;5042550;28;20120;-71
2021/01/09 00:19:46;;;;;;;19.35;10.20;;;;;;;;;;5043289;28;20092;-70
2021/01/09 00:22:12;;;;;;;16.65;9.90;;;;;;;;;;5044145;28;20021;-70
2021/01/09 00:24:38;;;;;;;18.75;10.85;;;;;;;;;;5030662;28;20029;-71
2021/01/09 00:27:11;;;;;;;18.05;10.73;;;;;;;;;;5049541;28;20128;-71
2021/01/09 00:29:38;;;;;;;16.17;9.77;;;;;;;;;;5040340;28;20022;-71
2021/01/09 00:32:04;;;;;;;19.88;10.57;;;;;;;;;;5032056;28;20036;-71
2021/01/09 00:34:31;;;;;;;16.48;9.93;;;;;;;;;;5047259;28;20050;-70
2021/01/09 00:36:57;;;;;;;18.15;9.50;;;;;;;;;;5047214;28;20025;-70
2021/01/09 00:39:23;;;;;;;19.15;9.25;;;;;;;;;;5041356;28;20022;-71
2021/01/09 00:41:49;;;;;;;18.48;10.05;;;;;;;;;;5043437;28;20032;-71
2021/01/09 00:44:16;;;;;;;16.50;9.35;;;;;;;;;;5044981;28;20028;-71
2021/01/09 00:46:42;;;;;;;20.50;11.15;;;;;;;;;;5041850;28;20017;-71
2021/01/09 00:49:08;;;;;;;20.23;9.82;;;;;;;;;;5042955;28;20029;-71
2021/01/09 00:51:34;;;;;;;16.83;9.70;;;;;;;;;;5020425;28;20112;-71
2021/01/09 00:54:00;;;;;;;18.65;10.50;;;;;;;;;;5028422;28;20486;-71
2021/01/09 00:56:26;;;;;;;19.35;10.13;;;;;;;;;;5046065;28;20025;-71
2021/01/09 00:58:52;;;;;;;19.10;10.10;;;;;;;;;;5046412;28;20035;-71
2021/01/09 01:01:18;;;;;;;14.82;8.88;;;;;;;;;;5048782;28;20064;-71
2021/01/09 01:03:44;;;;;;;21.00;10.35;;;;;;;;;;5022073;28;20025;-71
2021/01/09 01:06:10;;;;;;;16.42;9.48;;;;;;;;;;5047232;28;20033;-70
2021/01/09 01:08:36;;;;;;;16.55;9.02;;;;;;;;;;5027122;28;20045;-70
2021/01/09 01:11:05;;;;;;;24.83;10.82;;;;;;;;;;5040509;28;20033;-71
2021/01/09 01:13:31;;;;;;;20.25;10.80;;;;;;;;;;5046353;28;20067;-71
2021/01/09 01:15:57;;;;;;;20.58;10.80;;;;;;;;;;5036355;28;20052;-71
2021/01/09 01:18:23;;;;;;;18.40;10.27;;;;;;;;;;5046326;28;20033;-71
2021/01/09 01:20:49;;;;;;;16.35;9.38;;;;;;;;;;5047952;28;20481;-72
2021/01/09 01:23:16;;;;;;;20.95;10.25;;;;;;;;;;5045408;28;20048;-71
2021/01/09 01:25:42;;;;;;;19.23;10.55;;;;;;;;;;5046417;28;20029;-71
2021/01/09 01:28:08;;;;;;;20.13;11.13;;;;;;;;;;5044419;28;20459;-71
2021/01/09 01:30:34;;;;;;;21.63;10.75;;;;;;;;;;5047812;28;20546;-71
2021/01/09 01:33:00;;;;;;;22.92;11.23;;;;;;;;;;5045682;28;20021;-71
2021/01/09 01:35:26;;;;;;;16.63;9.82;;;;;;;;;;5047095;28;20071;-72
2021/01/09 01:37:52;;;;;;;17.83;10.77;;;;;;;;;;5044827;28;20025;-72
2021/01/09 01:40:18;;;;;;;22.42;10.48;;;;;;;;;;5046744;28;20032;-71
2021/01/09 01:42:44;;;;;;;22.30;11.88;;;;;;;;;;5044741;28;20082;-71
2021/01/09 01:45:11;;;;;;;19.45;11.13;;;;;;;;;;5046265;28;20083;-72
2021/01/09 01:47:37;;;;;;;21.00;10.95;;;;;;;;;;5025113;28;20512;-71
2021/01/09 01:50:04;;;;;;;22.85;11.15;;;;;;;;;;5047256;28;20094;-71
2021/01/09 01:52:30;;;;;;;20.95;10.40;;;;;;;;;;5048859;28;20025;-72
2021/01/09 01:54:56;;;;;;;19.48;9.68;;;;;;;;;;5048910;28;20056;-71
2021/01/09 01:57:22;;;;;;;18.42;10.38;;;;;;;;;;5042932;28;20025;-72
2021/01/09 01:59:49;;;;;;;20.55;10.02;;;;;;;;;;5046941;28;20029;-71
2021/01/09 02:02:15;;;;;;;22.25;11.30;;;;;;;;;;5048892;28;20036;-71
2021/01/09 02:04:42;;;;;;;23.08;12.38;;;;;;;;;;5045033;28;20163;-72
2021/01/09 02:07:12;;;;;;;18.58;10.52;;;;;;;;;;5043418;28;20029;-72
2021/01/09 02:09:40;;;;;;;18.08;9.90;;;;;;;;;;5029069;28;20484;-71
2021/01/09 02:12:12;;;;;;;19.90;11.75;;;;;;;;;;5048953;28;20033;-71
2021/01/09 02:14:46;;;;;;;20.92;11.80;;;;;;;;;;5029792;28;20115;-71
2021/01/09 02:17:12;;;;;;;19.35;10.70;;;;;;;;;;5047781;28;20040;-72
2021/01/09 02:19:39;;;;;;;23.13;12.38;;;;;;;;;;5040349;28;20079;-72
2021/01/09 02:22:09;;;;;;;20.65;11.60;;;;;;;;;;5041092;28;20021;-71
2021/01/09 02:24:35;;;;;;;20.52;11.30;;;;;;;;;;5049263;28;20029;-71
2021/01/09 02:27:03;;;;;;;22.52;11.60;;;;;;;;;;5041815;28;20036;-71
2021/01/09 02:29:30;;;;;;;23.48;10.93;;;;;;;;;;5045351;28;20017;-71
2021/01/09 02:32:01;;;;;;;20.33;11.35;;;;;;;;;;5043326;28;20120;-72
2021/01/09 02:34:35;;;;;;;23.95;12.15;;;;;;;;;;5048627;28;20029;-72
2021/01/09 02:37:02;;;;;;;22.92;12.32;;;;;;;;;;5048381;28;20516;-72
2021/01/09 02:39:28;;;;;;;17.83;10.63;;;;;;;;;;5038277;28;20021;-72
2021/01/09 02:41:55;;;;;;;24.50;13.10;;;;;;;;;;5045120;28;20040;-72
2021/01/09 02:44:21;;;;;;;22.30;12.40;;;;;;;;;;5043183;28;20025;-72
2021/01/09 02:46:47;;;;;;;22.95;12.68;;;;;;;;;;5026157;28;20021;-72
2021/01/09 02:49:13;;;;;;;20.13;11.07;;;;;;;;;;5038568;28;20074;-72
2021/01/09 02:51:39;;;;;;;24.70;13.55;;;;;;;;;;5030228;28;20021;-72
2021/01/09 02:54:06;;;;;;;26.60;12.95;;;;;;;;;;5044757;28;20021;-73
2021/01/09 02:56:32;;;;;;;23.75;12.57;;;;;;;;;;5044731;28;20105;-72
2021/01/09 02:58:58;;;;;;;25.70;11.60;;;;;;;;;;5044310;28;20489;-72
2021/01/09 03:01:28;;;;;;;21.02;12.32;;;;;;;;;;5050181;28;20021;-72
2021/01/09 03:03:54;;;;;;;25.13;12.25;;;;;;;;;;5046320;28;20025;-72
2021/01/09 03:06:20;;;;;;;21.30;11.55;;;;;;;;;;5032360;28;20033;-72
2021/01/09 03:08:46;;;;;;;21.33;11.32;;;;;;;;;;5036258;28;21584;-72
2021/01/09 03:11:12;;;;;;;20.52;11.70;;;;;;;;;;5042621;28;20051;-72
2021/01/09 03:13:38;;;;;;;23.88;12.93;;;;;;;;;;5043505;28;20478;-72
2021/01/09 03:16:04;;;;;;;20.75;12.45;;;;;;;;;;5043979;28;20048;-72
2021/01/09 03:18:30;;;;;;;21.27;12.68;;;;;;;;;;5034661;28;20017;-72
2021/01/09 03:20:56;;;;;;;21.38;10.73;;;;;;;;;;5030857;28;20021;-72
2021/01/09 03:23:23;;;;;;;18.27;10.75;;;;;;;;;;5044049;28;20053;-73
2021/01/09 03:25:49;;;;;;;22.25;11.45;;;;;;;;;;5032858;28;20041;-72
2021/01/09 03:28:15;;;;;;;21.75;12.05;;;;;;;;;;5041437;28;20020;-72
2021/01/09 03:30:41;;;;;;;24.15;12.45;;;;;;;;;;5049656;28;20122;-72
2021/01/09 03:33:07;;;;;;;23.60;12.35;;;;;;;;;;5042622;28;20025;-72
2021/01/09 03:35:33;;;;;;;19.67;11.70;;;;;;;;;;5043919;28;20044;-72
2021/01/09 03:37:59;;;;;;;19.42;11.65;;;;;;;;;;5046287;28;20025;-72
2021/01/09 03:40:25;;;;;;;21.48;11.80;;;;;;;;;;5037903;28;20025;-73
2021/01/09 03:42:51;;;;;;;23.15;11.93;;;;;;;;;;5030245;28;20025;-72
2021/01/09 03:45:17;;;;;;;22.73;13.13;;;;;;;;;;5046070;28;20021;-73
2021/01/09 03:47:43;;;;;;;24.80;10.93;;;;;;;;;;5020789;28;20401;-73
2021/01/09 03:50:09;;;;;;;19.05;10.95;;;;;;;;;;5047538;28;20033;-72
2021/01/09 03:52:35;;;;;;;20.58;11.13;;;;;;;;;;5048295;28;20032;-72
2021/01/09 03:55:01;;;;;;;21.80;11.20;;;;;;;;;;5048572;28;20029;-72
2021/01/09 03:57:27;;;;;;;20.27;10.65;;;;;;;;;;5046089;28;20021;-72
2021/01/09 03:59:53;;;;;;;22.38;13.35;;;;;;;;;;5047481;28;20451;-72
2021/01/09 04:02:19;;;;;;;24.25;11.77;;;;;;;;;;5042738;28;20029;-73
2021/01/09 04:04:45;;;;;;;22.27;13.55;;;;;;;;;;5047099;28;20025;-73
2021/01/09 04:07:11;;;;;;;24.90;12.77;;;;;;;;;;5019651;28;20071;-72
2021/01/09 04:09:37;;;;;;;24.85;13.68;;;;;;;;;;5028225;28;20036;-72
2021/01/09 04:12:03;;;;;;;27.80;14.20;;;;;;;;;;5042660;28;20029;-72
2021/01/09 04:14:29;;;;;;;34.90;16.40;;;;;;;;;;5043898;28;20028;-72
2021/01/09 04:16:56;;;;;;;31.27;18.58;;;;;;;;;;5025224;28;20030;-72
2021/01/09 04:19:22;;;;;;;34.20;16.23;;;;;;;;;;5025226;28;20221;-72
2021/01/09 04:21:52;;;;;;;29.20;16.08;;;;;;;;;;5036087;28;20032;-72
2021/01/09 04:24:18;;;;;;;30.73;16.92;;;;;;;;;;5033932;28;20496;-72
2021/01/09 04:26:44;;;;;;;26.88;14.35;;;;;;;;;;5039611;28;20482;-72
2021/01/09 04:29:10;;;;;;;26.02;14.60;;;;;;;;;;5038168;28;20021;-72
2021/01/09 04:31:36;;;;;;;23.38;13.13;;;;;;;;;;5049278;28;20025;-72
2021/01/09 04:34:02;;;;;;;22.42;12.63;;;;;;;;;;5029298;28;20037;-72
2021/01/09 04:36:28;;;;;;;24.35;12.85;;;;;;;;;;5041312;28;20036;-72
2021/01/09 04:38:54;;;;;;;25.75;12.95;;;;;;;;;;5044513;28;20021;-72
2021/01/09 04:41:21;;;;;;;25.45;12.88;;;;;;;;;;5042322;28;20025;-72
2021/01/09 04:43:48;;;;;;;24.48;12.10;;;;;;;;;;5038040;28;20556;-72
2021/01/09 04:46:16;;;;;;;22.23;12.70;;;;;;;;;;5047942;28;20099;-72
2021/01/09 04:48:44;;;;;;;24.80;12.80;;;;;;;;;;5044307;28;20026;-72
2021/01/09 04:51:10;;;;;;;21.85;12.27;;;;;;;;;;5046380;28;20075;-72
2021/01/09 04:53:37;;;;;;;21.15;12.38;;;;;;;;;;5029831;28;20040;-72
2021/01/09 04:56:03;;;;;;;24.75;12.15;;;;;;;;;;5051068;28;20172;-72
2021/01/09 04:58:31;;;;;;;21.67;12.52;;;;;;;;;;5035729;28;20470;-72
2021/01/09 05:00:57;;;;;;;21.23;11.10;;;;;;;;;;5050184;28;20025;-72
2021/01/09 05:03:23;;;;;;;23.77;12.50;;;;;;;;;;5045331;28;20481;-72
2021/01/09 05:05:49;;;;;;;25.83;12.38;;;;;;;;;;5048926;28;20112;-72
2021/01/09 05:08:15;;;;;;;21.17;12.02;;;;;;;;;;5018289;28;20418;-72
2021/01/09 05:10:42;;;;;;;18.67;10.73;;;;;;;;;;5023759;28;20025;-72
2021/01/09 05:13:08;;;;;;;27.17;13.40;;;;;;;;;;5024998;28;20041;-72
2021/01/09 05:15:38;;;;;;;21.02;11.32;;;;;;;;;;5023890;28;20463;-72
2021/01/09 05:18:04;;;;;;;19.63;10.95;;;;;;;;;;5027694;28;20048;-72
2021/01/09 05:20:31;;;;;;;21.63;11.40;;;;;;;;;;5031841;28;20083;-72
2021/01/09 05:22:58;;;;;;;20.98;10.82;;;;;;;;;;5017043;28;20498;-72
2021/01/09 05:25:25;;;;;;;19.33;10.85;;;;;;;;;;5017560;28;20276;-72
2021/01/09 05:27:55;;;;;;;20.38;11.25;;;;;;;;;;5028522;28;20108;-72
2021/01/09 05:30:22;;;;;;;19.55;10.80;;;;;;;;;;5030840;28;20388;-72
2021/01/09 05:32:48;;;;;;;19.55;10.02;;;;;;;;;;5026015;28;20030;-72
2021/01/09 05:35:14;;;;;;;19.23;10.80;;;;;;;;;;5018323;28;20565;-72
2021/01/09 05:37:41;;;;;;;18.38;10.27;;;;;;;;;;5029905;28;20028;-72
2021/01/09 05:40:09;;;;;;;18.35;9.65;;;;;;;;;;5028366;28;20129;-72
2021/01/09 05:42:36;;;;;;;18.67;9.80;;;;;;;;;;5025369;28;20156;-72
2021/01/09 05:45:02;;;;;;;18.55;9.93;;;;;;;;;;5024874;28;20037;-73
2021/01/09 05:47:29;;;;;;;21.83;10.75;;;;;;;;;;5024797;28;20060;-73
2021/01/09 05:49:56;;;;;;;17.35;9.80;;;;;;;;;;5027294;28;20805;-72
2021/01/09 05:52:26;;;;;;;24.73;10.85;;;;;;;;;;5031052;28;20032;-72
2021/01/09 05:55:01;;;;;;;22.67;10.05;;;;;;;;;;5029463;28;20025;-72
2021/01/09 05:57:28;;;;;;;18.63;10.55;;;;;;;;;;5022989;28;20397;-72
2021/01/09 05:59:57;;;;;;;18.45;9.98;;;;;;;;;;5025387;28;20029;-72
2021/01/09 06:02:24;;;;;;;19.83;9.43;;;;;;;;;;5029234;28;20036;-73
2021/01/09 06:04:51;;;;;;;17.67;9.05;;;;;;;;;;5028240;28;20033;-72
2021/01/09 06:07:21;;;;;;;23.38;9.88;;;;;;;;;;5014911;28;20049;-72
2021/01/09 06:09:53;;;;;;;18.20;9.38;;;;;;;;;;5047284;28;20059;-72
2021/01/09 06:12:21;;;;;;;20.38;9.85;;;;;;;;;;5051719;28;20037;-72
2021/01/09 06:14:49;;;;;;;18.60;10.48;;;;;;;;;;5048094;28;20025;-72
2021/01/09 06:17:17;;;;;;;20.25;9.43;;;;;;;;;;5049169;28;20527;-72
2021/01/09 06:19:43;;;;;;;21.65;8.70;;;;;;;;;;5043022;28;20017;-72
2021/01/09 06:22:10;;;;;;;18.15;9.48;;;;;;;;;;5042323;28;20029;-72
2021/01/09 06:24:37;;;;;;;19.48;9.73;;;;;;;;;;5046653;28;20029;-72
2021/01/09 06:27:03;;;;;;;18.95;9.15;;;;;;;;;;5032875;28;20048;-72
2021/01/09 06:29:31;;;;;;;20.60;9.52;;;;;;;;;;5037680;28;20052;-73
2021/01/09 06:32:04;;;;;;;15.32;8.50;;;;;;;;;;5043851;28;20386;-72
2021/01/09 06:34:30;;;;;;;20.00;8.93;;;;;;;;;;5047579;28;20025;-72
2021/01/09 06:36:56;;;;;;;18.48;8.90;;;;;;;;;;5045453;28;20061;-72
2021/01/09 06:39:24;;;;;;;21.52;9.20;;;;;;;;;;5043777;28;20045;-72
2021/01/09 06:41:51;;;;;;;20.42;9.13;;;;;;;;;;5047941;28;20484;-72
2021/01/09 06:44:18;;;;;;;16.95;7.95;;;;;;;;;;5049794;28;20484;-72
2021/01/09 06:46:44;;;;;;;18.08;9.10;;;;;;;;;;5048196;28;20037;-72
2021/01/09 06:49:20;;;;;;;16.35;8.32;;;;;;;;;;5040276;28;20029;-72
2021/01/09 06:51:54;;;;;;;14.50;6.97;;;;;;;;;;5022437;28;20036;-72
2021/01/09 06:54:27;;;;;;;17.77;8.50;;;;;;;;;;5047612;28;20029;-72
2021/01/09 06:57:02;;;;;;;16.85;7.90;;;;;;;;;;5034006;28;20019;-72
2021/01/09 06:59:37;;;;;;;18.33;8.18;;;;;;;;;;5045080;28;20017;-73
2021/01/09 07:02:13;;;;;;;20.55;9.50;;;;;;;;;;5047192;28;20028;-72
2021/01/09 07:04:57;;;;;;;17.58;7.18;;;;;;;;;;5042331;28;20378;-72
2021/01/09 07:07:44;;;;;;;15.93;6.80;;;;;;;;;;5045778;28;20037;-72
2021/01/09 07:10:26;;;;;;;17.92;8.30;;;;;;;;;;5026959;28;20577;-71
2021/01/09 07:12:55;;;;;;;14.82;7.45;;;;;;;;;;5027386;28;20457;-72
2021/01/09 07:15:22;;;;;;;18.58;8.18;;;;;;;;;;5043964;28;20131;-72
2021/01/09 07:17:50;;;;;;;14.35;7.22;;;;;;;;;;5046405;28;20386;-72
2021/01/09 07:20:18;;;;;;;16.77;7.43;;;;;;;;;;5048617;28;20104;-72
2021/01/09 07:22:46;;;;;;;19.77;7.70;;;;;;;;;;5046294;28;20090;-72
2021/01/09 07:25:12;;;;;;;19.17;8.52;;;;;;;;;;5040880;28;20390;-72
2021/01/09 07:27:42;;;;;;;18.58;8.98;;;;;;;;;;5031346;28;20246;-72
2021/01/09 07:30:12;;;;;;;20.77;8.82;;;;;;;;;;5036424;28;20026;-71
2021/01/09 07:32:59;;;;;;;20.60;9.95;;;;;;;;;;5049782;28;20056;-72
2021/01/09 07:35:25;;;;;;;17.17;8.15;;;;;;;;;;5038984;28;20025;-71
2021/01/09 07:37:55;;;;;;;21.73;10.18;;;;;;;;;;5033614;28;20029;-72
2021/01/09 07:40:21;;;;;;;22.73;9.57;;;;;;;;;;5030248;28;20029;-72
2021/01/09 07:42:48;;;;;;;18.15;8.65;;;;;;;;;;5046159;28;20043;-72
2021/01/09 07:45:16;;;;;;;15.23;7.35;;;;;;;;;;5044626;28;20397;-72
2021/01/09 07:47:43;;;;;;;17.48;7.63;;;;;;;;;;5044772;28;20087;-72
2021/01/09 07:50:10;;;;;;;16.48;7.70;;;;;;;;;;5047639;28;20036;-71
2021/01/09 07:52:36;;;;;;;16.40;7.72;;;;;;;;;;5045478;28;20044;-72
2021/01/09 07:55:03;;;;;;;14.10;6.47;;;;;;;;;;5042427;28;20025;-72
2021/01/09 07:57:30;;;;;;;12.85;5.50;;;;;;;;;;5043434;28;20021;-72
2021/01/09 08:22:14;;;;;;;12.23;5.97;;;;;;;;;;5025355;28;20076;-72
2021/01/09 08:30:46;;;;;;;15.45;6.75;;;;;;;;;;5011557;28;20240;-71
2021/01/09 09:07:06;;;;;;;20.00;7.38;;;;;;;;;;5029649;28;20383;-71
2021/01/09 11:48:43;;;;;;;4.88;0.90;;;;;;;;;;5002864;28;20040;-78
2021/01/09 12:06:28;;;;;;;6.05;0.80;;;;;;;;;;5028254;28;20036;-78
2021/01/09 12:43:19;;;;;;;4.20;0.60;;;;;;;;;;5024152;28;20182;-77
2021/01/09 14:01:14;;;;;;;11.90;0.80;;;;;;;;;;5018883;28;20033;-80
2021/01/09 17:06:11;;;;;;;7.57;2.30;;;;;;;;;;5006371;28;21267;-78
2021/01/09 17:08:40;;;;;;;15.13;4.07;;;;;;;;;;5022267;28;20068;-77
2021/01/09 17:11:06;;;;;;;14.43;6.50;;;;;;;;;;5027731;28;20037;-78
2021/01/09 17:13:32;;;;;;;15.13;4.68;;;;;;;;;;5026198;28;20111;-78
2021/01/09 17:15:58;;;;;;;15.57;3.78;;;;;;;;;;5029769;28;20021;-78
2021/01/09 17:18:25;;;;;;;10.70;2.78;;;;;;;;;;5024484;28;20033;-80
2021/01/09 17:20:51;;;;;;;9.93;2.67;;;;;;;;;;5032359;28;20018;-79
2021/01/09 17:23:17;;;;;;;13.10;2.83;;;;;;;;;;5027956;28;20044;-79
2021/01/09 17:25:48;;;;;;;12.25;2.47;;;;;;;;;;5024144;28;20084;-78
2021/01/09 17:28:15;;;;;;;16.30;3.10;;;;;;;;;;5018694;28;20037;-78
2021/01/09 17:30:43;;;;;;;9.40;3.20;;;;;;;;;;5013426;28;20092;-78
2021/01/09 17:33:09;;;;;;;13.48;3.45;;;;;;;;;;5028117;28;20036;-79
2021/01/09 17:35:35;;;;;;;13.95;5.07;;;;;;;;;;5026875;28;20405;-78
2021/01/09 17:38:01;;;;;;;14.98;5.22;;;;;;;;;;5029369;28;20033;-78
2021/01/09 17:40:27;;;;;;;10.90;5.25;;;;;;;;;;5030334;28;20026;-78
2021/01/09 17:42:53;;;;;;;17.33;4.80;;;;;;;;;;5024673;28;20032;-78
2021/01/09 17:45:19;;;;;;;12.60;4.80;;;;;;;;;;5022391;28;20140;-78
2021/01/09 17:47:45;;;;;;;16.63;4.78;;;;;;;;;;5029680;28;20570;-78
2021/01/09 17:50:11;;;;;;;17.77;6.10;;;;;;;;;;5023640;28;20026;-78
2021/01/09 17:52:37;;;;;;;14.90;5.85;;;;;;;;;;5026051;28;20033;-78
2021/01/09 17:55:04;;;;;;;11.27;5.32;;;;;;;;;;5025904;28;20018;-77
2021/01/09 17:57:30;;;;;;;16.48;5.80;;;;;;;;;;5022723;28;20091;-77
2021/01/09 17:59:56;;;;;;;13.20;5.25;;;;;;;;;;5021708;28;20022;-78
2021/01/09 18:02:22;;;;;;;17.25;5.65;;;;;;;;;;5021183;28;20515;-78
2021/01/09 18:04:48;;;;;;;9.73;4.90;;;;;;;;;;5026476;28;20048;-78
2021/01/09 18:07:14;;;;;;;12.75;3.83;;;;;;;;;;5031670;28;20045;-77
2021/01/09 18:09:41;;;;;;;10.35;4.07;;;;;;;;;;5040676;28;20029;-78
2021/01/09 18:12:08;;;;;;;11.07;3.47;;;;;;;;;;5021800;28;20068;-78
2021/01/09 18:14:34;;;;;;;8.23;3.17;;;;;;;;;;5016850;28;20119;-77
2021/01/09 18:17:00;;;;;;;8.70;3.13;;;;;;;;;;5035582;28;20471;-77
2021/01/09 18:19:26;;;;;;;6.90;3.05;;;;;;;;;;5018950;28;20056;-78
2021/01/09 18:21:52;;;;;;;16.70;3.47;;;;;;;;;;5025083;28;20028;-77
2021/01/09 18:24:18;;;;;;;8.95;3.47;;;;;;;;;;5029501;28;20021;-77
2021/01/09 18:26:44;;;;;;;13.63;3.30;;;;;;;;;;5028962;28;20528;-78
2021/01/09 18:29:10;;;;;;;12.15;3.17;;;;;;;;;;5024068;28;20033;-78
2021/01/09 18:31:36;;;;;;;13.80;4.32;;;;;;;;;;5028336;28;20046;-78
2021/01/09 18:34:02;;;;;;;10.60;3.47;;;;;;;;;;5017004;28;20494;-78
2021/01/09 18:36:30;;;;;;;8.00;1.77;;;;;;;;;;5015229;28;20025;-76
2021/01/09 18:38:57;;;;;;;9.18;1.77;;;;;;;;;;5029881;28;20022;-77
2021/01/09 18:41:24;;;;;;;11.30;1.58;;;;;;;;;;5024939;28;20025;-78
2021/01/09 18:43:50;;;;;;;5.78;1.05;;;;;;;;;;5022168;28;20072;-76
2021/01/09 18:46:18;;;;;;;6.63;1.05;;;;;;;;;;5024262;28;20028;-76
2021/01/09 18:48:45;;;;;;;8.70;1.17;;;;;;;;;;5026501;28;20029;-76
2021/01/09 18:51:12;;;;;;;10.98;2.00;;;;;;;;;;5027530;28;20052;-77
2021/01/09 18:53:42;;;;;;;12.18;0.88;;;;;;;;;;5026994;28;20087;-78
2021/01/09 18:56:12;;;;;;;9.15;1.10;;;;;;;;;;5028972;28;20053;-77
2021/01/09 18:58:38;;;;;;;8.55;1.13;;;;;;;;;;5029190;28;20498;-77
2021/01/09 19:01:05;;;;;;;5.90;0.77;;;;;;;;;;5024630;28;20025;-78
2021/01/09 19:03:31;;;;;;;20.40;1.63;;;;;;;;;;5023649;28;20132;-77
2021/01/09 19:05:57;;;;;;;12.18;1.25;;;;;;;;;;5024874;28;20615;-78
2021/01/09 19:08:23;;;;;;;7.50;1.00;;;;;;;;;;5026039;28;20037;-78
2021/01/09 19:10:49;;;;;;;9.43;1.42;;;;;;;;;;5028068;28;20037;-78
2021/01/09 19:13:15;;;;;;;13.43;1.45;;;;;;;;;;5025490;28;20048;-78
2021/01/09 19:15:41;;;;;;;9.85;1.10;;;;;;;;;;5027747;28;20164;-78
2021/01/09 19:18:08;;;;;;;11.38;1.58;;;;;;;;;;5025512;28;20091;-78
2021/01/09 19:20:34;;;;;;;10.88;1.80;;;;;;;;;;5023221;28;20025;-78
2021/01/09 19:23:01;;;;;;;9.25;1.02;;;;;;;;;;5024282;28;20124;-78
2021/01/09 19:25:27;;;;;;;8.50;1.25;;;;;;;;;;5025596;28;20112;-77
2021/01/09 19:27:53;;;;;;;19.25;2.42;;;;;;;;;;5028995;28;20501;-78
2021/01/09 19:30:20;;;;;;;6.75;1.15;;;;;;;;;;5025121;28;20045;-78
2021/01/09 19:32:46;;;;;;;11.20;1.45;;;;;;;;;;5021107;28;20041;-77
2021/01/09 19:35:12;;;;;;;8.43;1.35;;;;;;;;;;5023894;28;20115;-78
2021/01/09 19:37:38;;;;;;;3.80;0.65;;;;;;;;;;5027971;28;20091;-78
2021/01/09 19:40:06;;;;;;;9.50;1.33;;;;;;;;;;5016167;28;20017;-78
2021/01/09 19:42:32;;;;;;;8.93;1.27;;;;;;;;;;5018586;28;20627;-78
2021/01/09 19:44:58;;;;;;;7.93;1.17;;;;;;;;;;5024211;28;20528;-78
2021/01/09 19:47:24;;;;;;;8.82;1.17;;;;;;;;;;5021799;28;20021;-77
2021/01/09 19:49:50;;;;;;;13.95;1.60;;;;;;;;;;5026125;28;20021;-78
2021/01/09 19:52:18;;;;;;;7.97;0.93;;;;;;;;;;5024191;28;20386;-78
2021/01/09 19:54:44;;;;;;;6.88;1.10;;;;;;;;;;5022905;28;20033;-77
2021/01/09 19:57:13;;;;;;;13.73;1.50;;;;;;;;;;5023513;28;20029;-78
2021/01/09 19:59:39;;;;;;;12.95;1.17;;;;;;;;;;5027286;28;20024;-77
2021/01/09 20:02:05;;;;;;;8.95;1.63;;;;;;;;;;5018208;28;20045;-78
2021/01/09 20:04:31;;;;;;;7.20;1.27;;;;;;;;;;5025061;28;20038;-77
2021/01/09 20:06:57;;;;;;;12.40;1.85;;;;;;;;;;5025921;28;20060;-77
2021/01/09 20:09:23;;;;;;;4.65;1.10;;;;;;;;;;5029589;28;20061;-78
2021/01/09 20:11:50;;;;;;;7.03;1.42;;;;;;;;;;5019889;28;20080;-78
2021/01/09 20:14:16;;;;;;;4.75;0.82;;;;;;;;;;5022376;28;20033;-77
2021/01/09 20:16:42;;;;;;;11.02;2.00;;;;;;;;;;5028968;28;20052;-78
2021/01/09 20:19:08;;;;;;;9.50;1.60;;;;;;;;;;5034915;28;20112;-78
2021/01/09 20:21:34;;;;;;;6.93;2.47;;;;;;;;;;5032614;28;20014;-78
2021/01/09 20:24:01;;;;;;;9.27;3.45;;;;;;;;;;5030029;28;20033;-76
2021/01/09 20:26:27;;;;;;;12.02;4.75;;;;;;;;;;5035414;28;20496;-78
2021/01/09 20:28:53;;;;;;;14.23;3.88;;;;;;;;;;5032744;28;20030;-77
2021/01/09 20:31:20;;;;;;;14.10;3.97;;;;;;;;;;5031158;28;20108;-79
2021/01/09 20:33:47;;;;;;;11.13;4.28;;;;;;;;;;5028059;28;20047;-79
2021/01/09 20:36:14;;;;;;;15.43;4.32;;;;;;;;;;5027964;28;20116;-77
2021/01/09 20:38:40;;;;;;;12.32;3.03;;;;;;;;;;5033690;28;20022;-77
2021/01/09 20:41:07;;;;;;;12.20;3.15;;;;;;;;;;5034693;28;20053;-78
2021/01/09 20:43:33;;;;;;;10.85;2.80;;;;;;;;;;5031927;28;20030;-77
2021/01/09 20:45:59;;;;;;;15.85;4.82;;;;;;;;;;5029729;28;20099;-78
2021/01/09 20:48:25;;;;;;;14.05;3.35;;;;;;;;;;5034103;28;20030;-77
2021/01/09 20:50:51;;;;;;;14.45;3.05;;;;;;;;;;5031427;28;20493;-76
2021/01/09 20:53:17;;;;;;;9.35;3.00;;;;;;;;;;5021484;28;20520;-76
2021/01/09 20:55:44;;;;;;;6.35;2.22;;;;;;;;;;5033796;28;20116;-76
2021/01/09 20:58:11;;;;;;;9.57;2.28;;;;;;;;;;5034335;28;20485;-77
2021/01/09 21:00:37;;;;;;;12.27;3.03;;;;;;;;;;5029817;28;20023;-76
2021/01/09 21:03:03;;;;;;;12.45;5.40;;;;;;;;;;5029031;28;20456;-76
2021/01/09 21:05:29;;;;;;;11.35;4.07;;;;;;;;;;5033299;28;20025;-76
2021/01/09 21:07:55;;;;;;;17.05;2.83;;;;;;;;;;5028343;28;20072;-76
2021/01/09 21:10:21;;;;;;;11.98;2.63;;;;;;;;;;5035154;28;20687;-78
2021/01/09 21:12:48;;;;;;;10.80;2.60;;;;;;;;;;5031207;28;20507;-77
2021/01/09 21:15:14;;;;;;;8.57;2.45;;;;;;;;;;5034693;28;20055;-78
2021/01/09 21:17:41;;;;;;;7.05;2.70;;;;;;;;;;5031787;28;20392;-77
2021/01/09 21:20:09;;;;;;;13.40;3.13;;;;;;;;;;5035253;28;20021;-76
2021/01/09 21:22:35;;;;;;;8.38;2.55;;;;;;;;;;5021841;28;20025;-77
2021/01/09 21:25:01;;;;;;;11.25;2.58;;;;;;;;;;5024804;28;20032;-77
2021/01/09 21:27:27;;;;;;;11.15;3.15;;;;;;;;;;5029990;28;20034;-79
2021/01/09 21:29:53;;;;;;;8.40;2.97;;;;;;;;;;5028162;28;20037;-77
2021/01/09 21:32:19;;;;;;;11.15;4.45;;;;;;;;;;5028684;28;20028;-78
2021/01/09 21:34:45;;;;;;;11.23;3.40;;;;;;;;;;5029836;28;20114;-77
2021/01/09 21:37:11;;;;;;;16.75;4.70;;;;;;;;;;5030128;28;20065;-78
2021/01/09 21:39:37;;;;;;;17.10;6.20;;;;;;;;;;5031800;28;20085;-78
2021/01/09 21:42:04;;;;;;;14.10;6.05;;;;;;;;;;5025985;28;20092;-78
2021/01/09 21:44:30;;;;;;;14.80;5.78;;;;;;;;;;5031351;28;20021;-77
2021/01/09 21:46:57;;;;;;;18.77;7.35;;;;;;;;;;5030641;28;20022;-75
2021/01/09 21:49:23;;;;;;;21.15;9.00;;;;;;;;;;5026834;28;20044;-76
2021/01/09 21:51:53;;;;;;;20.58;9.82;;;;;;;;;;5026786;28;20029;-75
2021/01/09 21:54:19;;;;;;;21.30;9.55;;;;;;;;;;5024844;28;20041;-74
2021/01/09 21:56:45;;;;;;;23.08;10.15;;;;;;;;;;5024936;28;20021;-75
2021/01/09 21:59:11;;;;;;;21.05;11.50;;;;;;;;;;5028306;28;20021;-75
2021/01/09 22:01:38;;;;;;;25.63;11.65;;;;;;;;;;5030432;28;20021;-74
2021/01/09 22:04:05;;;;;;;32.83;11.95;;;;;;;;;;5025829;28;20029;-75
2021/01/09 22:06:31;;;;;;;25.48;11.98;;;;;;;;;;5032034;28;20045;-75
2021/01/09 22:08:58;;;;;;;32.10;12.00;;;;;;;;;;5030036;28;20060;-75
2021/01/09 22:11:32;;;;;;;27.05;12.52;;;;;;;;;;5030531;28;20547;-75
2021/01/09 22:13:58;;;;;;;28.65;12.15;;;;;;;;;;5025499;28;20041;-74
2021/01/09 22:16:24;;;;;;;25.98;11.75;;;;;;;;;;5030081;28;20036;-73
2021/01/09 22:18:50;;;;;;;30.30;11.90;;;;;;;;;;5031370;28;20013;-73
2021/01/09 22:21:16;;;;;;;32.85;12.85;;;;;;;;;;5029809;28;20024;-74
2021/01/09 22:23:43;;;;;;;40.95;16.25;;;;;;;;;;5027476;28;20032;-74
2021/01/09 22:26:09;;;;;;;31.75;14.23;;;;;;;;;;5030877;28;20061;-74
2021/01/09 22:28:35;;;;;;;35.53;15.65;;;;;;;;;;5029259;28;20010;-73
2021/01/09 22:31:01;;;;;;;29.85;15.07;;;;;;;;;;5030391;28;20037;-73
2021/01/09 22:33:27;;;;;;;31.50;13.40;;;;;;;;;;5028009;28;20082;-73
2021/01/09 22:35:53;;;;;;;31.33;15.27;;;;;;;;;;5030026;28;20021;-72
2021/01/09 22:38:19;;;;;;;29.92;14.48;;;;;;;;;;5030925;28;20489;-71
2021/01/09 22:40:45;;;;;;;41.15;19.33;;;;;;;;;;5029550;28;20025;-71
2021/01/09 22:43:11;;;;;;;35.65;17.25;;;;;;;;;;5025917;28;20104;-70
2021/01/09 22:45:37;;;;;;;36.38;18.15;;;;;;;;;;5029135;28;20025;-71
2021/01/09 22:48:04;;;;;;;42.88;20.85;;;;;;;;;;5028931;28;20025;-71
2021/01/09 22:50:30;;;;;;;38.83;20.13;;;;;;;;;;5027563;28;20591;-70
2021/01/09 22:52:56;;;;;;;41.85;19.25;;;;;;;;;;5022574;28;20091;-70
2021/01/09 22:55:22;;;;;;;37.00;20.73;;;;;;;;;;5028647;28;20025;-70
2021/01/09 22:57:48;;;;;;;41.38;21.50;;;;;;;;;;5027257;28;20030;-70
2021/01/09 23:00:21;;;;;;;38.88;21.40;;;;;;;;;;5029176;28;20021;-70
2021/01/09 23:02:49;;;;;;;37.30;20.33;;;;;;;;;;5024822;28;20112;-70
2021/01/09 23:05:15;;;;;;;36.55;18.77;;;;;;;;;;5027237;28;20039;-70
2021/01/09 23:07:42;;;;;;;37.53;18.35;;;;;;;;;;5028123;28;20057;-70
2021/01/09 23:10:08;;;;;;;32.58;17.90;;;;;;;;;;5028443;28;20028;-70
2021/01/09 23:12:34;;;;;;;34.00;17.90;;;;;;;;;;5023969;28;20110;-70